Latest Coastal Weather Observations for Warrnambool

IDV60701

Issued at 7:05 am EDT Saturday 1 November 2014 (issued every 10 minutes, with the page automatically refreshed every 10 minutes)

About coastal observations | Map of coastal stations | Coastal observations for VIC | Marine services | Other Formats
Station Details ID: 090186 Name: WARRNAMBOOL AIRPORT NDB Lat: -38.29 Lon: 142.45 Height: 70.8 m
Data from the previous 72 hours. | See also: Recent months at Warrnambool
Date/Time
EDT
Temp

°C
Wind Pressure Rain
since 9am
mm
Weather Cloud Vis
km
Sea
Height
m
Swell
Dir
 
Speed
knots
Gust
knots
hPa Trend Height
m
Period
s
Dir
01/07:00am 10.3 W 12 14 1003.7 - 4.6 - - - - - - -
01/06:30am 10.6 WSW 18 22 1003.1 - 4.4 - - - - - - -
01/06:00am 10.6 WSW 19 28 1002.9 - 4.4 Rain - - - - - -
01/05:58am 10.7 WSW 18 28 1002.8 - 4.4 - - - - - - -
01/05:30am 10.6 WSW 17 23 1002.0 - 4.0 - - - - - - -
01/05:08am 11.3 WSW 16 31 1001.6 - 3.6 - - - - - - -
01/05:00am 11.5 WSW 17 23 1001.3 - 3.2 - - - - - - -
01/04:52am 11.5 W 15 28 1001.1 - 3.2 - - - - - - -
01/04:30am 11.7 W 12 16 1000.8 - 2.8 - - - - - - -
01/04:00am 12.1 W 13 19 1000.6 - 2.2 - - - - - - -
01/03:30am 12.6 WNW 11 14 1000.2 - 1.8 - - - - - - -
01/03:00am 12.7 WNW 12 18 1000.2 - 1.8 Recent precip. - - - - - -
01/02:30am 12.7 WNW 9 16 1000.2 - 1.8 - - - - - - -
01/02:00am 12.8 WNW 9 14 1000.0 - 1.6 - - - - - - -
01/01:30am 13.0 WNW 7 10 1000.0 - 0.6 - - - - - - -
01/01:00am 13.1 W 9 13 1000.3 - 0.4 - - - - - - -
01/12:30am 13.5 W 11 15 1000.5 - 0.0 - - - - - - -
01/12:00am 13.7 W 10 16 1000.9 - 0.0 - - - - - - -
 
Date/Time
EDT
Temp

°C
Wind Pressure Rain
since 9am
mm
Weather Cloud Vis
km
Sea
Height
m
Swell
Dir
 
Speed
knots
Gust
knots
hPa Trend Height
m
Period
s
Dir
31/11:30pm 14.1 W 14 19 1001.9 - 0.0 - - - - - - -
31/11:00pm 14.9 W 13 19 1002.4 - 0.0 - - - - - - -
31/10:30pm 15.0 WSW 16 21 1000.7 - 0.0 - - - - - - -
31/10:00pm 15.2 W 14 20 1001.4 - 0.0 - - - - - - -
31/09:41pm 15.3 W 17 27 1000.4 - 0.0 - - - - - - -
31/09:30pm 15.4 W 20 29 1000.4 - 0.0 - - - - - - -
31/09:03pm 15.8 WSW 21 31 999.6 - 0.0 - - - - - - -
31/09:00pm 15.8 WSW 22 29 999.5 - 0.0 - - - - - - -
31/08:32pm 16.7 WSW 20 30 998.7 - 0.0 - - - - - - -
31/08:30pm 16.8 WSW 19 25 998.7 - 0.0 - - - - - - -
31/08:00pm 17.8 WSW 17 23 997.8 - 0.0 - - - - - - -
31/07:30pm 19.8 WSW 13 21 997.4 - 0.0 - - - - - - -
31/07:00pm 22.0 WSW 17 23 997.2 - 0.0 - - - - - - -
31/06:30pm 24.6 SW 16 24 997.2 - 0.0 - - - - - - -
31/06:00pm 28.5 NW 12 17 997.0 - 0.0 - - - - - - -
31/05:30pm 29.7 NW 13 19 997.3 - 0.0 - - - - - - -
31/05:00pm 30.9 NNW 15 20 997.7 - 0.0 - - - - - - -
31/04:30pm 29.5 NNW 16 26 998.1 - 0.0 - - - - - - -
31/04:00pm 31.0 NNW 24 32 998.6 - 0.0 - - - - - - -
31/03:51pm 31.2 NNW 19 29 998.8 - 0.0 - - - - - - -
31/03:30pm 30.4 NNW 20 27 999.4 - 0.0 - - - - - - -
31/03:00pm 29.7 N 19 27 1000.1 - 0.0 - - - - - - -
31/02:49pm 28.3 N 19 29 1000.2 - 0.0 - - - - - - -
31/02:30pm 27.5 N 18 27 1000.7 - 0.0 - - - - - - -
31/02:00pm 28.2 N 19 31 1001.0 - 0.0 - - - - - - -
31/01:44pm 27.4 N 20 30 1001.4 - 0.0 - - - - - - -
31/01:30pm 27.6 NNW 19 26 1001.5 - 0.0 - - - - - - -
31/01:00pm 28.6 N 21 31 1002.0 - 0.0 - - - - - - -
31/12:57pm 28.4 N 20 31 1002.1 - 0.0 - - - - - - -
31/12:30pm 28.3 N 20 26 1002.4 - 0.0 - - - - - - -
31/12:10pm 28.1 N 19 30 1002.9 - 0.0 - - - - - - -
31/12:00pm 28.5 N 18 26 1003.2 - 0.0 - - - - - - -
31/11:30am 27.3 N 16 24 1003.8 - 0.0 - - - - - - -
31/11:00am 24.6 NNE 16 23 1004.2 - 0.0 - - - - - - -
31/10:30am 21.0 NNE 14 17 1004.8 - 0.0 - - - - - - -
31/10:00am 19.6 N 11 15 1005.4 - 0.0 - - - - - - -
31/09:30am 15.9 NNE 13 17 1005.9 - 0.0 - - - - - - -
31/09:00am 13.1 N 15 18 1006.5 - 0.0 - - - - - - -
31/08:30am 11.9 NNE 14 18 1006.9 - 0.0 - - - - - - -
31/08:00am 11.1 NNE 12 16 1007.5 - 0.0 - - - - - - -
31/07:30am 10.3 NNE 12 15 1008.0 - 0.0 - - - - - - -
31/07:00am 9.8 NNE 12 16 1008.1 - 0.0 - - - - - - -
31/06:30am 9.5 NNE 12 15 1008.0 - 0.0 - - - - - - -
31/06:00am 9.1 NNE 12 16 1008.1 - 0.0 - - - - - - -
31/05:30am 8.7 NNE 11 15 1008.9 - 0.0 - - - - - - -
31/05:00am 8.1 NNE 10 12 1009.1 - 0.0 - - - - - - -
31/04:30am 6.6 NNE 9 10 1009.8 - 0.0 - - - - - - -
31/04:00am 6.7 N 8 10 1010.1 - 0.0 - - - - - - -
31/03:30am 7.3 N 8 10 1010.7 - 0.0 - - - - - - -
31/03:00am 6.6 NNE 9 10 1011.0 - 0.0 - - - - - - -
31/02:30am 6.4 N 7 8 1011.6 - 0.0 - - - - - - -
31/02:00am 6.4 N 6 7 1012.4 - 0.0 - - - - - - -
31/01:30am 6.8 N 8 8 1012.6 - 0.0 - - - - - - -
31/01:00am 7.2 N 8 8 1012.9 - 0.0 - - - - - - -
31/12:30am 6.8 N 6 7 1013.3 - 0.0 - - - - - - -
31/12:00am 6.7 N 4 6 1013.5 - 0.0 - - - - - - -
 
Date/Time
EDT
Temp

°C
Wind Pressure Rain
since 9am
mm
Weather Cloud Vis
km
Sea
Height
m
Swell
Dir
 
Speed
knots
Gust
knots
hPa Trend Height
m
Period
s
Dir
30/11:30pm 7.7 NNW 4 5 1014.0 - 0.0 - - - - - - -
30/11:00pm 7.0 NW 4 5 1014.2 - 0.0 - - - - - - -
30/10:30pm 7.2 W 1 4 1014.3 - 0.0 - - - - - - -
30/10:00pm 8.6 CALM 0 0 1014.2 - 0.0 - - - - - - -
30/09:30pm 9.0 CALM 0 0 1014.1 - 0.0 - - - - - - -
30/09:00pm 10.2 S 3 3 1014.0 - 0.0 - - - - - - -
30/08:30pm 9.7 SW 6 8 1013.8 - 0.0 - - - - - - -
30/08:00pm 11.4 SSW 7 8 1013.7 - 0.0 - - - - - - -
30/07:30pm 13.8 SSW 8 10 1013.5 - 0.0 - - - - - - -
30/07:00pm 14.7 SW 10 14 1013.4 - 0.0 - - - - - - -
30/06:30pm 15.4 SSW 11 14 1013.4 - 0.0 - - - - - - -
30/06:00pm 15.7 SSW 13 18 1013.4 - 0.0 - - - - - - -
30/05:30pm 16.2 SW 15 18 1013.5 - 0.0 - - - - - - -
30/05:00pm 16.9 SSW 16 20 1013.7 - 0.0 - - - - - - -
30/04:30pm 16.6 SSW 14 18 1013.7 - 0.0 - - - - - - -
30/04:00pm 16.7 SW 13 18 1013.8 - 0.0 - - - - - - -
30/03:30pm 17.7 SW 11 14 1014.0 - 0.0 - - - - - - -
30/03:00pm 17.0 SW 12 16 1014.4 - 0.0 - - - - - - -
30/02:30pm 16.7 SSW 13 16 1014.6 - 0.0 - - - - - - -
30/02:00pm 17.4 W 9 13 1014.5 - 0.0 - - - - - - -
30/01:30pm 16.9 W 10 15 1014.8 - 0.0 - - - - - - -
30/01:00pm 15.9 W 10 13 1014.9 - 0.0 - - - - - - -
30/12:30pm 15.2 W 10 13 1015.2 - 0.0 - - - - - - -
30/12:00pm 15.4 W 9 13 1015.4 - 0.0 - - - - - - -
30/11:30am 15.9 W 10 14 1015.6 - 0.0 - - - - - - -
30/11:00am 15.1 WNW 9 13 1015.5 - 0.0 - - - - - - -
30/10:30am 15.4 NW 8 12 1015.6 - 0.0 - - - - - - -
30/10:00am 14.3 WNW 9 13 1015.7 - 0.0 - - - - - - -
30/09:30am 13.7 WNW 8 11 1016.0 - 0.0 - - - - - - -
30/09:00am 13.3 NW 7 9 1015.9 - 0.0 - - - - - - -
30/08:30am 12.9 NNW 7 8 1015.7 - 0.0 - - - - - - -
30/08:00am 12.2 NNW 7 10 1015.2 - 0.0 - - - - - - -
30/07:30am 11.6 NW 6 7 1015.1 - 0.0 - - - - - - -
30/07:00am 11.1 NW 7 9 1015.1 - 0.0 - - - - - - -
30/06:30am 11.0 NW 6 7 1014.9 - 0.0 - - - - - - -
30/06:00am 11.0 NNW 7 9 1014.3 - 0.0 - - - - - - -
30/05:30am 11.1 NW 8 10 1014.5 - 0.0 - - - - - - -
30/05:00am 10.8 NNW 7 9 1014.2 - 0.0 - - - - - - -
30/04:30am 10.5 NW 7 8 1014.4 - 0.0 - - - - - - -
30/04:00am 10.4 NW 7 9 1014.9 - 0.0 - - - - - - -
30/03:30am 10.5 NW 8 11 1014.8 - 0.0 - - - - - - -
30/03:00am 9.9 NW 6 8 1014.7 - 0.0 - - - - - - -
30/02:30am 8.4 NW 6 7 1014.8 - 0.0 - - - - - - -
30/02:00am 9.5 NW 6 7 1015.1 - 0.0 - - - - - - -
30/01:30am 9.5 NW 7 8 1015.3 - 0.0 - - - - - - -
30/01:00am 9.0 NW 7 9 1015.5 - 0.0 - - - - - - -
30/12:30am 10.0 NW 5 7 1015.9 - 0.0 - - - - - - -
30/12:00am 9.7 WNW 6 7 1016.3 - 0.0 - - - - - - -
 
Date/Time
EDT
Temp

°C
Wind Pressure Rain
since 9am
mm
Weather Cloud Vis
km
Sea
Height
m
Swell
Dir
 
Speed
knots
Gust
knots
hPa Trend Height
m
Period
s
Dir
29/11:30pm 9.5 NW 7 9 1016.4 - 0.0 - - - - - - -
29/11:00pm 10.2 WNW 6 9 1016.6 - 0.0 - - - - - - -
29/10:30pm 9.3 WNW 5 7 1016.7 - 0.0 - - - - - - -
29/10:00pm 10.0 WNW 5 6 1016.7 - 0.0 - - - - - - -
29/09:30pm 10.8 W 8 9 1016.8 - 0.0 - - - - - - -
29/09:00pm 11.7 W 9 11 1016.8 - 0.0 - - - - - - -
29/08:30pm 13.1 W 10 15 1016.5 - 0.0 - - - - - - -
29/08:00pm 13.0 WSW 11 14 1016.4 - 0.0 - - - - - - -
29/07:30pm 14.7 WSW 15 20 1016.2 - 0.0 - - - - - - -
29/07:00pm 15.5 WSW 15 21 1015.9 - 0.0 - - - - - - -
29/06:30pm 16.3 WSW 15 20 1015.8 - 0.0 - - - - - - -
29/06:00pm 16.0 WSW 14 20 1015.9 - 0.0 - - - - - - -
29/05:30pm 16.3 SW 17 21 1015.8 - 0.0 - - - - - - -
29/05:00pm 16.8 SW 15 19 1015.7 - 0.0 - - - - - - -
29/04:30pm 16.2 SW 14 19 1015.9 - 0.0 - - - - - - -
29/04:00pm 18.1 WNW 13 17 1015.8 - 0.0 - - - - - - -
29/03:30pm 17.5 WNW 12 19 1016.1 - 0.0 - - - - - - -
29/03:00pm 16.8 WNW 12 17 1016.4 - 0.0 - - - - - - -
29/02:30pm 16.6 WNW 11 16 1016.6 - 0.0 - - - - - - -
29/02:00pm 16.5 NW 12 16 1016.7 - 0.0 - - - - - - -
29/01:30pm 15.9 NW 13 17 1017.0 - 0.0 - - - - - - -
29/01:00pm 15.6 NW 13 18 1017.1 - 0.0 - - - - - - -
29/12:30pm 15.7 WNW 12 18 1017.4 - 0.0 - - - - - - -
29/12:00pm 15.1 NW 14 17 1017.7 - 0.0 - - - - - - -
29/11:30am 15.1 WNW 12 17 1018.0 - 0.0 - - - - - - -
29/11:00am 14.7 WNW 11 17 1018.1 - 0.0 - - - - - - -
29/10:30am 14.5 NW 13 18 1018.1 - 0.0 - - - - - - -
29/10:00am 14.7 NW 13 19 1018.1 - 0.0 - - - - - - -
29/09:30am 13.1 NW 12 17 1018.4 - 0.0 - - - - - - -
29/09:00am 12.9 NNW 10 13 1018.3 - 0.4 - - - - - - -
29/08:30am 11.9 NW 9 12 1018.4 - 0.4 - - - - - - -
29/08:00am 11.4 NNW 8 10 1018.3 - 0.4 - - - - - - -
29/07:30am 10.8 NW 7 9 1018.1 - 0.4 - - - - - - -

Other Formats:

Comma delimited format used in spreadsheet applications
http://www.bom.gov.au/fwo/IDV60701/IDV60701.94837.axf

JavaScript Object Notation format (JSON) in row-major order
http://www.bom.gov.au/fwo/IDV60701/IDV60701.94837.json